Terminal Aerodrome Forecast
Issued by NWS Raleigh/Durham, NC

Home | Current Version | Previous Version | Text Only | Print | Product List | Glossary On
Versions: 1 2 3 4 5 6 7 8 9 10 11 12 13 14 15 16 17 18 19 20 21 22 23 24 25 26 27 28 29 30 31 32 33 34 35 36 37 38 39 40 41 42 43 44 45 46 47 48 49 50
000
FTUS42 KRAH 210508 AAE
TAFRDU
TAF AMD
KRDU 210508Z 2105/2124 VRB15G25KT 1/2SM +TSRA FG BKN012CB OVC025
     FM210600 VRB05KT P6SM VCTS FEW002 BKN040CB
     FM210800 28006KT P6SM SCT250
     FM211300 27012KT P6SM SKC=

USA.gov is the U.S. government's official web portal to all federal, state and local government web resources and services.